sensor_id;sensor_type;location;lat;lon;timestamp;P1;durP1;ratioP1;P2;durP2;ratioP2
80307;SDS011;69616;43.522;1.348;2023-04-24T00:00:07;8.13;;;2.80;;
80307;SDS011;69616;43.522;1.348;2023-04-24T00:02:38;8.18;;;3.47;;
80307;SDS011;69616;43.522;1.348;2023-04-24T00:05:04;8.93;;;3.80;;
80307;SDS011;69616;43.522;1.348;2023-04-24T00:07:30;9.45;;;3.80;;
80307;SDS011;69616;43.522;1.348;2023-04-24T00:09:56;9.47;;;3.63;;
80307;SDS011;69616;43.522;1.348;2023-04-24T00:12:22;8.00;;;3.50;;
80307;SDS011;69616;43.522;1.348;2023-04-24T00:14:47;8.90;;;3.80;;
80307;SDS011;69616;43.522;1.348;2023-04-24T00:17:12;8.27;;;3.33;;
80307;SDS011;69616;43.522;1.348;2023-04-24T00:19:38;13.77;;;4.55;;
80307;SDS011;69616;43.522;1.348;2023-04-24T00:22:03;11.50;;;4.70;;
80307;SDS011;69616;43.522;1.348;2023-04-24T00:24:29;11.77;;;4.60;;
80307;SDS011;69616;43.522;1.348;2023-04-24T00:26:54;10.38;;;3.95;;
80307;SDS011;69616;43.522;1.348;2023-04-24T00:29:20;8.87;;;4.13;;
80307;SDS011;69616;43.522;1.348;2023-04-24T00:31:45;10.00;;;3.90;;
80307;SDS011;69616;43.522;1.348;2023-04-24T00:34:11;10.00;;;4.17;;
80307;SDS011;69616;43.522;1.348;2023-04-24T00:36:37;10.20;;;3.95;;
80307;SDS011;69616;43.522;1.348;2023-04-24T00:39:03;9.07;;;3.43;;
80307;SDS011;69616;43.522;1.348;2023-04-24T00:41:28;7.95;;;3.10;;
80307;SDS011;69616;43.522;1.348;2023-04-24T00:43:54;10.00;;;3.63;;
80307;SDS011;69616;43.522;1.348;2023-04-24T00:46:20;7.82;;;3.35;;
80307;SDS011;69616;43.522;1.348;2023-04-24T00:48:46;7.20;;;2.97;;
80307;SDS011;69616;43.522;1.348;2023-04-24T00:51:11;8.82;;;3.25;;
80307;SDS011;69616;43.522;1.348;2023-04-24T00:53:37;8.73;;;3.17;;
80307;SDS011;69616;43.522;1.348;2023-04-24T00:56:02;7.67;;;2.90;;
80307;SDS011;69616;43.522;1.348;2023-04-24T00:58:29;9.10;;;3.15;;
80307;SDS011;69616;43.522;1.348;2023-04-24T01:00:56;6.95;;;2.70;;
80307;SDS011;69616;43.522;1.348;2023-04-24T01:03:24;6.45;;;2.67;;
80307;SDS011;69616;43.522;1.348;2023-04-24T01:05:51;6.47;;;2.87;;
80307;SDS011;69616;43.522;1.348;2023-04-24T01:08:17;7.28;;;3.10;;
80307;SDS011;69616;43.522;1.348;2023-04-24T01:10:45;8.43;;;3.08;;
80307;SDS011;69616;43.522;1.348;2023-04-24T01:13:12;7.25;;;3.40;;
80307;SDS011;69616;43.522;1.348;2023-04-24T01:15:38;7.20;;;3.20;;
80307;SDS011;69616;43.522;1.348;2023-04-24T01:18:03;8.43;;;2.97;;
80307;SDS011;69616;43.522;1.348;2023-04-24T01:20:29;6.63;;;2.63;;
80307;SDS011;69616;43.522;1.348;2023-04-24T01:22:55;8.23;;;2.70;;
80307;SDS011;69616;43.522;1.348;2023-04-24T01:25:21;5.60;;;2.40;;
80307;SDS011;69616;43.522;1.348;2023-04-24T01:27:47;6.57;;;2.40;;
80307;SDS011;69616;43.522;1.348;2023-04-24T01:30:13;7.73;;;2.70;;
80307;SDS011;69616;43.522;1.348;2023-04-24T01:32:39;10.45;;;2.17;;
80307;SDS011;69616;43.522;1.348;2023-04-24T01:35:05;5.70;;;2.10;;
80307;SDS011;69616;43.522;1.348;2023-04-24T01:37:32;7.97;;;1.70;;
80307;SDS011;69616;43.522;1.348;2023-04-24T01:39:58;6.67;;;1.80;;
80307;SDS011;69616;43.522;1.348;2023-04-24T01:42:23;6.60;;;1.70;;
80307;SDS011;69616;43.522;1.348;2023-04-24T01:44:49;9.97;;;1.70;;
80307;SDS011;69616;43.522;1.348;2023-04-24T01:47:15;7.47;;;1.70;;
80307;SDS011;69616;43.522;1.348;2023-04-24T01:49:40;6.67;;;1.60;;
80307;SDS011;69616;43.522;1.348;2023-04-24T01:52:05;6.80;;;1.70;;
80307;SDS011;69616;43.522;1.348;2023-04-24T01:54:31;7.07;;;1.45;;
80307;SDS011;69616;43.522;1.348;2023-04-24T01:56:56;8.27;;;1.60;;
80307;SDS011;69616;43.522;1.348;2023-04-24T01:59:22;7.13;;;1.57;;
80307;SDS011;69616;43.522;1.348;2023-04-24T02:01:48;6.05;;;1.48;;
80307;SDS011;69616;43.522;1.348;2023-04-24T02:04:13;6.67;;;1.53;;
80307;SDS011;69616;43.522;1.348;2023-04-24T02:06:40;8.07;;;1.40;;
80307;SDS011;69616;43.522;1.348;2023-04-24T02:09:05;12.13;;;2.07;;
80307;SDS011;69616;43.522;1.348;2023-04-24T02:11:31;5.10;;;1.30;;
80307;SDS011;69616;43.522;1.348;2023-04-24T02:13:56;6.63;;;1.37;;
80307;SDS011;69616;43.522;1.348;2023-04-24T02:16:22;8.00;;;1.50;;
80307;SDS011;69616;43.522;1.348;2023-04-24T02:18:47;5.80;;;1.50;;
80307;SDS011;69616;43.522;1.348;2023-04-24T02:21:13;6.50;;;1.60;;
80307;SDS011;69616;43.522;1.348;2023-04-24T02:23:38;7.90;;;1.63;;
80307;SDS011;69616;43.522;1.348;2023-04-24T02:26:03;7.87;;;1.70;;
80307;SDS011;69616;43.522;1.348;2023-04-24T02:28:29;7.45;;;1.88;;
80307;SDS011;69616;43.522;1.348;2023-04-24T02:30:54;6.90;;;1.47;;
80307;SDS011;69616;43.522;1.348;2023-04-24T02:33:20;5.23;;;1.40;;
80307;SDS011;69616;43.522;1.348;2023-04-24T02:35:45;7.13;;;1.27;;
80307;SDS011;69616;43.522;1.348;2023-04-24T02:38:11;7.40;;;1.60;;
80307;SDS011;69616;43.522;1.348;2023-04-24T02:40:36;8.33;;;1.30;;
80307;SDS011;69616;43.522;1.348;2023-04-24T02:43:01;8.07;;;1.67;;
80307;SDS011;69616;43.522;1.348;2023-04-24T02:45:27;7.63;;;1.40;;
80307;SDS011;69616;43.522;1.348;2023-04-24T02:47:52;8.13;;;1.57;;
80307;SDS011;69616;43.522;1.348;2023-04-24T02:50:18;6.57;;;1.40;;
80307;SDS011;69616;43.522;1.348;2023-04-24T02:52:43;10.37;;;1.70;;
80307;SDS011;69616;43.522;1.348;2023-04-24T02:55:09;6.37;;;1.40;;
80307;SDS011;69616;43.522;1.348;2023-04-24T02:57:34;8.48;;;1.40;;
80307;SDS011;69616;43.522;1.348;2023-04-24T03:00:00;6.33;;;1.27;;
80307;SDS011;69616;43.522;1.348;2023-04-24T03:02:25;8.27;;;1.60;;
80307;SDS011;69616;43.522;1.348;2023-04-24T03:04:50;7.63;;;1.50;;
80307;SDS011;69616;43.522;1.348;2023-04-24T03:07:16;10.43;;;1.50;;
80307;SDS011;69616;43.522;1.348;2023-04-24T03:09:41;7.10;;;1.20;;
80307;SDS011;69616;43.522;1.348;2023-04-24T03:12:07;7.20;;;1.30;;
80307;SDS011;69616;43.522;1.348;2023-04-24T03:14:32;8.38;;;1.17;;
80307;SDS011;69616;43.522;1.348;2023-04-24T03:16:58;6.37;;;1.00;;
80307;SDS011;69616;43.522;1.348;2023-04-24T03:19:23;9.17;;;1.50;;
80307;SDS011;69616;43.522;1.348;2023-04-24T03:21:49;9.68;;;1.42;;
80307;SDS011;69616;43.522;1.348;2023-04-24T03:24:15;7.73;;;1.30;;
80307;SDS011;69616;43.522;1.348;2023-04-24T03:26:40;9.82;;;1.67;;
80307;SDS011;69616;43.522;1.348;2023-04-24T03:29:06;6.97;;;1.37;;
80307;SDS011;69616;43.522;1.348;2023-04-24T03:31:31;8.27;;;1.33;;
80307;SDS011;69616;43.522;1.348;2023-04-24T03:33:56;6.90;;;1.37;;
80307;SDS011;69616;43.522;1.348;2023-04-24T03:36:22;8.05;;;1.50;;
80307;SDS011;69616;43.522;1.348;2023-04-24T03:38:47;8.67;;;1.27;;
80307;SDS011;69616;43.522;1.348;2023-04-24T03:41:13;9.00;;;1.40;;
80307;SDS011;69616;43.522;1.348;2023-04-24T03:43:38;7.63;;;1.20;;
80307;SDS011;69616;43.522;1.348;2023-04-24T03:46:04;12.23;;;1.27;;
80307;SDS011;69616;43.522;1.348;2023-04-24T03:48:30;8.97;;;1.40;;
80307;SDS011;69616;43.522;1.348;2023-04-24T03:50:55;9.20;;;1.60;;
80307;SDS011;69616;43.522;1.348;2023-04-24T03:53:21;8.77;;;1.20;;
80307;SDS011;69616;43.522;1.348;2023-04-24T03:55:46;10.37;;;1.40;;
80307;SDS011;69616;43.522;1.348;2023-04-24T03:58:12;9.10;;;1.30;;
80307;SDS011;69616;43.522;1.348;2023-04-24T04:00:39;9.75;;;1.23;;
80307;SDS011;69616;43.522;1.348;2023-04-24T04:03:05;6.28;;;1.30;;
80307;SDS011;69616;43.522;1.348;2023-04-24T04:05:31;7.07;;;1.13;;
80307;SDS011;69616;43.522;1.348;2023-04-24T04:07:56;11.83;;;1.43;;
80307;SDS011;69616;43.522;1.348;2023-04-24T04:10:22;11.37;;;1.40;;
80307;SDS011;69616;43.522;1.348;2023-04-24T04:12:47;10.57;;;1.53;;
80307;SDS011;69616;43.522;1.348;2023-04-24T04:15:13;7.83;;;1.63;;
80307;SDS011;69616;43.522;1.348;2023-04-24T04:17:38;11.02;;;1.70;;
80307;SDS011;69616;43.522;1.348;2023-04-24T04:20:04;7.30;;;1.60;;
80307;SDS011;69616;43.522;1.348;2023-04-24T04:22:35;9.98;;;1.30;;
80307;SDS011;69616;43.522;1.348;2023-04-24T04:25:00;9.13;;;1.75;;
80307;SDS011;69616;43.522;1.348;2023-04-24T04:27:26;11.70;;;1.37;;
80307;SDS011;69616;43.522;1.348;2023-04-24T04:29:51;7.97;;;1.20;;
80307;SDS011;69616;43.522;1.348;2023-04-24T04:32:17;8.30;;;1.50;;
80307;SDS011;69616;43.522;1.348;2023-04-24T04:34:43;7.53;;;1.50;;
80307;SDS011;69616;43.522;1.348;2023-04-24T04:37:10;7.22;;;1.02;;
80307;SDS011;69616;43.522;1.348;2023-04-24T04:39:37;6.97;;;1.30;;
80307;SDS011;69616;43.522;1.348;2023-04-24T04:42:03;8.73;;;1.50;;
80307;SDS011;69616;43.522;1.348;2023-04-24T04:44:28;6.45;;;1.23;;
80307;SDS011;69616;43.522;1.348;2023-04-24T04:46:55;8.20;;;1.47;;
80307;SDS011;69616;43.522;1.348;2023-04-24T04:49:21;9.35;;;1.30;;
80307;SDS011;69616;43.522;1.348;2023-04-24T04:51:48;9.20;;;1.75;;
80307;SDS011;69616;43.522;1.348;2023-04-24T04:54:15;11.32;;;1.48;;
80307;SDS011;69616;43.522;1.348;2023-04-24T04:56:41;13.37;;;1.40;;
80307;SDS011;69616;43.522;1.348;2023-04-24T04:59:06;8.63;;;1.20;;
80307;SDS011;69616;43.522;1.348;2023-04-24T05:01:32;7.23;;;1.30;;
80307;SDS011;69616;43.522;1.348;2023-04-24T05:03:57;9.80;;;1.33;;
80307;SDS011;69616;43.522;1.348;2023-04-24T05:06:22;10.57;;;1.53;;
80307;SDS011;69616;43.522;1.348;2023-04-24T05:08:48;9.50;;;1.67;;
80307;SDS011;69616;43.522;1.348;2023-04-24T05:11:13;9.63;;;1.60;;
80307;SDS011;69616;43.522;1.348;2023-04-24T05:13:39;9.50;;;1.70;;
80307;SDS011;69616;43.522;1.348;2023-04-24T05:16:05;9.17;;;1.53;;
80307;SDS011;69616;43.522;1.348;2023-04-24T05:18:30;5.43;;;1.33;;
80307;SDS011;69616;43.522;1.348;2023-04-24T05:20:56;9.83;;;1.50;;
80307;SDS011;69616;43.522;1.348;2023-04-24T05:23:21;8.95;;;1.38;;
80307;SDS011;69616;43.522;1.348;2023-04-24T05:25:47;10.77;;;1.70;;
80307;SDS011;69616;43.522;1.348;2023-04-24T05:28:12;6.73;;;1.30;;
80307;SDS011;69616;43.522;1.348;2023-04-24T05:30:37;10.60;;;1.80;;
80307;SDS011;69616;43.522;1.348;2023-04-24T05:33:03;11.82;;;1.80;;
80307;SDS011;69616;43.522;1.348;2023-04-24T05:35:28;10.23;;;1.73;;
80307;SDS011;69616;43.522;1.348;2023-04-24T05:37:54;8.03;;;1.73;;
80307;SDS011;69616;43.522;1.348;2023-04-24T05:40:19;11.97;;;1.90;;
80307;SDS011;69616;43.522;1.348;2023-04-24T05:42:45;14.53;;;1.90;;
80307;SDS011;69616;43.522;1.348;2023-04-24T05:45:10;11.77;;;2.07;;
80307;SDS011;69616;43.522;1.348;2023-04-24T05:47:41;12.50;;;1.83;;
80307;SDS011;69616;43.522;1.348;2023-04-24T05:50:06;8.93;;;1.90;;
80307;SDS011;69616;43.522;1.348;2023-04-24T05:52:32;11.32;;;2.30;;
80307;SDS011;69616;43.522;1.348;2023-04-24T05:54:58;8.20;;;1.60;;
80307;SDS011;69616;43.522;1.348;2023-04-24T05:57:23;11.03;;;1.80;;
80307;SDS011;69616;43.522;1.348;2023-04-24T05:59:48;9.70;;;1.60;;
80307;SDS011;69616;43.522;1.348;2023-04-24T06:02:14;8.88;;;1.77;;
80307;SDS011;69616;43.522;1.348;2023-04-24T06:04:39;12.73;;;1.60;;
80307;SDS011;69616;43.522;1.348;2023-04-24T06:07:05;20.20;;;2.40;;
80307;SDS011;69616;43.522;1.348;2023-04-24T06:09:31;10.10;;;2.03;;
80307;SDS011;69616;43.522;1.348;2023-04-24T06:11:56;9.53;;;1.90;;
80307;SDS011;69616;43.522;1.348;2023-04-24T06:14:23;15.95;;;3.85;;
80307;SDS011;69616;43.522;1.348;2023-04-24T06:16:48;9.63;;;2.57;;
80307;SDS011;69616;43.522;1.348;2023-04-24T06:19:14;8.83;;;1.67;;
80307;SDS011;69616;43.522;1.348;2023-04-24T06:21:39;7.60;;;1.75;;
80307;SDS011;69616;43.522;1.348;2023-04-24T06:24:05;10.73;;;1.83;;
80307;SDS011;69616;43.522;1.348;2023-04-24T06:26:30;10.20;;;1.80;;
80307;SDS011;69616;43.522;1.348;2023-04-24T06:28:55;8.10;;;1.60;;
80307;SDS011;69616;43.522;1.348;2023-04-24T06:31:21;10.73;;;1.60;;
80307;SDS011;69616;43.522;1.348;2023-04-24T06:33:48;10.97;;;1.63;;
80307;SDS011;69616;43.522;1.348;2023-04-24T06:36:14;10.73;;;1.85;;
80307;SDS011;69616;43.522;1.348;2023-04-24T06:38:39;10.90;;;1.70;;
80307;SDS011;69616;43.522;1.348;2023-04-24T06:41:05;9.17;;;1.53;;
80307;SDS011;69616;43.522;1.348;2023-04-24T06:43:33;11.97;;;1.90;;
80307;SDS011;69616;43.522;1.348;2023-04-24T06:45:59;10.98;;;2.08;;
80307;SDS011;69616;43.522;1.348;2023-04-24T06:48:25;9.98;;;1.65;;
80307;SDS011;69616;43.522;1.348;2023-04-24T06:50:51;11.30;;;1.90;;
80307;SDS011;69616;43.522;1.348;2023-04-24T06:53:17;14.35;;;1.80;;
80307;SDS011;69616;43.522;1.348;2023-04-24T06:55:43;15.10;;;2.20;;
80307;SDS011;69616;43.522;1.348;2023-04-24T06:58:11;10.70;;;1.80;;
80307;SDS011;69616;43.522;1.348;2023-04-24T07:00:36;10.53;;;2.20;;
80307;SDS011;69616;43.522;1.348;2023-04-24T07:03:03;8.40;;;1.55;;
80307;SDS011;69616;43.522;1.348;2023-04-24T07:05:30;12.20;;;1.63;;
80307;SDS011;69616;43.522;1.348;2023-04-24T07:07:56;5.97;;;1.60;;
80307;SDS011;69616;43.522;1.348;2023-04-24T07:10:23;9.55;;;2.10;;
80307;SDS011;69616;43.522;1.348;2023-04-24T07:12:49;11.15;;;1.92;;
80307;SDS011;69616;43.522;1.348;2023-04-24T07:15:14;8.83;;;1.77;;
80307;SDS011;69616;43.522;1.348;2023-04-24T07:17:41;9.32;;;2.28;;
80307;SDS011;69616;43.522;1.348;2023-04-24T07:20:09;11.45;;;1.92;;
80307;SDS011;69616;43.522;1.348;2023-04-24T07:22:35;8.73;;;1.80;;
80307;SDS011;69616;43.522;1.348;2023-04-24T07:25:02;13.60;;;2.35;;
80307;SDS011;69616;43.522;1.348;2023-04-24T07:27:28;17.57;;;2.37;;
80307;SDS011;69616;43.522;1.348;2023-04-24T07:29:53;18.90;;;3.60;;
80307;SDS011;69616;43.522;1.348;2023-04-24T07:32:18;9.77;;;1.73;;
80307;SDS011;69616;43.522;1.348;2023-04-24T07:34:44;11.40;;;1.63;;
80307;SDS011;69616;43.522;1.348;2023-04-24T07:37:09;9.53;;;1.70;;
80307;SDS011;69616;43.522;1.348;2023-04-24T07:39:35;8.67;;;1.50;;
80307;SDS011;69616;43.522;1.348;2023-04-24T07:42:00;6.18;;;0.93;;
80307;SDS011;69616;43.522;1.348;2023-04-24T07:44:26;9.47;;;0.93;;
80307;SDS011;69616;43.522;1.348;2023-04-24T07:46:52;6.80;;;0.80;;
80307;SDS011;69616;43.522;1.348;2023-04-24T07:49:17;4.33;;;0.60;;
80307;SDS011;69616;43.522;1.348;2023-04-24T07:51:42;5.67;;;0.67;;
80307;SDS011;69616;43.522;1.348;2023-04-24T07:54:08;4.77;;;0.53;;
80307;SDS011;69616;43.522;1.348;2023-04-24T07:56:33;4.55;;;0.60;;
80307;SDS011;69616;43.522;1.348;2023-04-24T07:58:59;5.77;;;0.90;;
80307;SDS011;69616;43.522;1.348;2023-04-24T08:01:26;6.97;;;0.70;;
80307;SDS011;69616;43.522;1.348;2023-04-24T08:03:51;9.65;;;1.23;;
80307;SDS011;69616;43.522;1.348;2023-04-24T08:06:17;6.10;;;0.87;;
80307;SDS011;69616;43.522;1.348;2023-04-24T08:08:42;9.47;;;1.10;;
80307;SDS011;69616;43.522;1.348;2023-04-24T08:11:08;9.17;;;0.93;;
80307;SDS011;69616;43.522;1.348;2023-04-24T08:13:33;8.90;;;0.90;;
80307;SDS011;69616;43.522;1.348;2023-04-24T08:15:58;8.13;;;1.20;;
80307;SDS011;69616;43.522;1.348;2023-04-24T08:18:24;5.80;;;0.80;;
80307;SDS011;69616;43.522;1.348;2023-04-24T08:20:50;7.53;;;0.80;;
80307;SDS011;69616;43.522;1.348;2023-04-24T08:23:15;6.50;;;0.80;;
80307;SDS011;69616;43.522;1.348;2023-04-24T08:25:40;7.53;;;0.80;;
80307;SDS011;69616;43.522;1.348;2023-04-24T08:28:06;6.47;;;0.80;;
80307;SDS011;69616;43.522;1.348;2023-04-24T08:30:34;7.80;;;0.80;;
80307;SDS011;69616;43.522;1.348;2023-04-24T08:32:59;5.67;;;0.90;;
80307;SDS011;69616;43.522;1.348;2023-04-24T08:35:25;8.17;;;0.87;;
80307;SDS011;69616;43.522;1.348;2023-04-24T08:37:51;7.13;;;0.80;;
80307;SDS011;69616;43.522;1.348;2023-04-24T08:40:18;7.35;;;0.95;;
80307;SDS011;69616;43.522;1.348;2023-04-24T08:42:47;6.17;;;0.90;;
80307;SDS011;69616;43.522;1.348;2023-04-24T08:45:13;4.90;;;0.70;;
80307;SDS011;69616;43.522;1.348;2023-04-24T08:47:38;8.23;;;1.00;;
80307;SDS011;69616;43.522;1.348;2023-04-24T08:50:06;9.88;;;0.80;;
80307;SDS011;69616;43.522;1.348;2023-04-24T08:52:33;5.75;;;0.80;;
80307;SDS011;69616;43.522;1.348;2023-04-24T08:55:02;8.52;;;0.90;;
80307;SDS011;69616;43.522;1.348;2023-04-24T08:57:28;7.87;;;0.90;;
80307;SDS011;69616;43.522;1.348;2023-04-24T08:59:54;4.88;;;0.77;;
80307;SDS011;69616;43.522;1.348;2023-04-24T09:02:21;4.45;;;0.80;;
80307;SDS011;69616;43.522;1.348;2023-04-24T09:04:48;5.50;;;0.70;;
80307;SDS011;69616;43.522;1.348;2023-04-24T09:07:15;4.13;;;0.60;;
80307;SDS011;69616;43.522;1.348;2023-04-24T09:09:42;5.37;;;0.90;;
80307;SDS011;69616;43.522;1.348;2023-04-24T09:12:08;5.68;;;0.60;;
80307;SDS011;69616;43.522;1.348;2023-04-24T09:14:35;3.33;;;0.50;;
80307;SDS011;69616;43.522;1.348;2023-04-24T09:17:03;8.43;;;0.80;;
80307;SDS011;69616;43.522;1.348;2023-04-24T09:19:28;5.70;;;0.70;;
80307;SDS011;69616;43.522;1.348;2023-04-24T09:21:54;4.37;;;0.50;;
80307;SDS011;69616;43.522;1.348;2023-04-24T09:24:21;7.22;;;1.05;;
80307;SDS011;69616;43.522;1.348;2023-04-24T09:26:58;5.90;;;0.60;;
80307;SDS011;69616;43.522;1.348;2023-04-24T09:29:26;6.43;;;0.73;;
80307;SDS011;69616;43.522;1.348;2023-04-24T09:31:52;7.22;;;0.60;;
80307;SDS011;69616;43.522;1.348;2023-04-24T09:34:21;6.00;;;0.60;;
80307;SDS011;69616;43.522;1.348;2023-04-24T09:36:48;5.05;;;0.50;;
80307;SDS011;69616;43.522;1.348;2023-04-24T09:39:15;6.43;;;0.60;;
80307;SDS011;69616;43.522;1.348;2023-04-24T09:41:44;6.20;;;0.50;;
80307;SDS011;69616;43.522;1.348;2023-04-24T09:46:41;7.03;;;0.80;;
80307;SDS011;69616;43.522;1.348;2023-04-24T09:49:20;5.47;;;1.05;;
80307;SDS011;69616;43.522;1.348;2023-04-24T09:51:47;5.63;;;0.70;;
80307;SDS011;69616;43.522;1.348;2023-04-24T09:54:13;4.70;;;0.57;;
80307;SDS011;69616;43.522;1.348;2023-04-24T09:56:45;6.28;;;0.80;;
80307;SDS011;69616;43.522;1.348;2023-04-24T09:59:13;5.05;;;0.60;;
80307;SDS011;69616;43.522;1.348;2023-04-24T10:01:40;5.78;;;0.70;;
80307;SDS011;69616;43.522;1.348;2023-04-24T10:06:43;6.90;;;0.70;;
80307;SDS011;69616;43.522;1.348;2023-04-24T10:09:09;4.00;;;0.55;;
80307;SDS011;69616;43.522;1.348;2023-04-24T10:11:37;4.22;;;0.60;;
80307;SDS011;69616;43.522;1.348;2023-04-24T10:14:02;6.97;;;0.80;;
80307;SDS011;69616;43.522;1.348;2023-04-24T10:16:28;3.55;;;0.60;;
80307;SDS011;69616;43.522;1.348;2023-04-24T10:18:55;3.72;;;1.17;;
80307;SDS011;69616;43.522;1.348;2023-04-24T10:21:24;4.15;;;0.68;;
80307;SDS011;69616;43.522;1.348;2023-04-24T10:23:51;6.43;;;0.70;;
80307;SDS011;69616;43.522;1.348;2023-04-24T10:26:18;4.00;;;0.70;;
80307;SDS011;69616;43.522;1.348;2023-04-24T10:28:45;3.92;;;0.47;;
80307;SDS011;69616;43.522;1.348;2023-04-24T10:31:11;6.35;;;0.82;;
80307;SDS011;69616;43.522;1.348;2023-04-24T10:33:38;5.22;;;0.60;;
80307;SDS011;69616;43.522;1.348;2023-04-24T10:36:06;5.53;;;0.57;;
80307;SDS011;69616;43.522;1.348;2023-04-24T10:38:34;5.07;;;0.70;;
80307;SDS011;69616;43.522;1.348;2023-04-24T10:41:07;4.32;;;0.57;;
80307;SDS011;69616;43.522;1.348;2023-04-24T10:43:34;4.50;;;0.65;;
80307;SDS011;69616;43.522;1.348;2023-04-24T10:46:01;5.00;;;0.80;;
80307;SDS011;69616;43.522;1.348;2023-04-24T10:48:28;7.40;;;0.80;;
80307;SDS011;69616;43.522;1.348;2023-04-24T10:50:53;2.80;;;0.50;;
80307;SDS011;69616;43.522;1.348;2023-04-24T10:53:20;6.20;;;0.87;;
80307;SDS011;69616;43.522;1.348;2023-04-24T10:58:23;5.15;;;0.60;;
80307;SDS011;69616;43.522;1.348;2023-04-24T11:01:00;5.13;;;1.10;;
80307;SDS011;69616;43.522;1.348;2023-04-24T11:03:27;6.15;;;1.13;;
80307;SDS011;69616;43.522;1.348;2023-04-24T11:08:45;4.80;;;0.60;;
80307;SDS011;69616;43.522;1.348;2023-04-24T11:11:14;4.85;;;0.65;;
80307;SDS011;69616;43.522;1.348;2023-04-24T11:16:20;6.15;;;0.80;;
80307;SDS011;69616;43.522;1.348;2023-04-24T11:18:49;4.57;;;0.82;;
80307;SDS011;69616;43.522;1.348;2023-04-24T11:21:19;4.83;;;0.50;;
80307;SDS011;69616;43.522;1.348;2023-04-24T11:23:45;4.35;;;0.75;;
80307;SDS011;69616;43.522;1.348;2023-04-24T11:28:37;4.47;;;0.80;;
80307;SDS011;69616;43.522;1.348;2023-04-24T11:34:11;3.93;;;0.60;;
80307;SDS011;69616;43.522;1.348;2023-04-24T11:36:38;6.35;;;0.75;;
80307;SDS011;69616;43.522;1.348;2023-04-24T11:39:05;5.63;;;0.77;;
80307;SDS011;69616;43.522;1.348;2023-04-24T11:41:31;5.10;;;0.80;;
80307;SDS011;69616;43.522;1.348;2023-04-24T11:43:57;6.47;;;0.68;;
80307;SDS011;69616;43.522;1.348;2023-04-24T11:46:23;4.47;;;0.90;;
80307;SDS011;69616;43.522;1.348;2023-04-24T11:48:52;3.95;;;0.90;;
80307;SDS011;69616;43.522;1.348;2023-04-24T11:51:18;4.67;;;0.73;;
80307;SDS011;69616;43.522;1.348;2023-04-24T11:53:43;4.87;;;0.70;;
80307;SDS011;69616;43.522;1.348;2023-04-24T11:56:09;3.83;;;0.70;;
80307;SDS011;69616;43.522;1.348;2023-04-24T11:58:35;5.33;;;0.77;;
80307;SDS011;69616;43.522;1.348;2023-04-24T12:01:01;5.10;;;0.60;;
80307;SDS011;69616;43.522;1.348;2023-04-24T12:03:26;4.90;;;0.83;;
80307;SDS011;69616;43.522;1.348;2023-04-24T12:05:52;6.60;;;0.73;;
80307;SDS011;69616;43.522;1.348;2023-04-24T12:08:27;7.07;;;0.90;;
80307;SDS011;69616;43.522;1.348;2023-04-24T12:10:53;6.40;;;1.00;;
80307;SDS011;69616;43.522;1.348;2023-04-24T12:13:19;8.17;;;1.10;;
80307;SDS011;69616;43.522;1.348;2023-04-24T12:15:45;5.50;;;1.02;;
80307;SDS011;69616;43.522;1.348;2023-04-24T12:18:14;7.73;;;0.80;;
80307;SDS011;69616;43.522;1.348;2023-04-24T12:20:41;12.38;;;1.80;;
80307;SDS011;69616;43.522;1.348;2023-04-24T12:23:07;7.40;;;1.10;;
80307;SDS011;69616;43.522;1.348;2023-04-24T12:25:32;4.63;;;0.70;;
80307;SDS011;69616;43.522;1.348;2023-04-24T12:30:31;6.75;;;0.80;;
80307;SDS011;69616;43.522;1.348;2023-04-24T12:32:58;12.60;;;2.97;;
80307;SDS011;69616;43.522;1.348;2023-04-24T12:35:26;11.77;;;2.60;;
80307;SDS011;69616;43.522;1.348;2023-04-24T12:37:52;6.57;;;0.90;;
80307;SDS011;69616;43.522;1.348;2023-04-24T12:40:18;5.57;;;0.70;;
80307;SDS011;69616;43.522;1.348;2023-04-24T12:42:45;7.22;;;1.00;;
80307;SDS011;69616;43.522;1.348;2023-04-24T12:45:12;4.75;;;0.90;;
80307;SDS011;69616;43.522;1.348;2023-04-24T12:47:38;8.43;;;1.15;;
80307;SDS011;69616;43.522;1.348;2023-04-24T12:50:06;4.72;;;1.02;;
80307;SDS011;69616;43.522;1.348;2023-04-24T12:52:35;7.13;;;0.90;;
80307;SDS011;69616;43.522;1.348;2023-04-24T12:55:01;3.45;;;0.68;;
80307;SDS011;69616;43.522;1.348;2023-04-24T12:57:28;8.23;;;1.10;;
80307;SDS011;69616;43.522;1.348;2023-04-24T12:59:55;7.13;;;1.00;;
80307;SDS011;69616;43.522;1.348;2023-04-24T13:02:25;6.53;;;1.02;;
80307;SDS011;69616;43.522;1.348;2023-04-24T13:04:52;6.03;;;0.80;;
80307;SDS011;69616;43.522;1.348;2023-04-24T13:07:18;6.15;;;0.70;;
80307;SDS011;69616;43.522;1.348;2023-04-24T13:09:44;6.83;;;1.10;;
80307;SDS011;69616;43.522;1.348;2023-04-24T13:12:11;5.60;;;0.90;;
80307;SDS011;69616;43.522;1.348;2023-04-24T13:14:37;7.80;;;1.15;;
80307;SDS011;69616;43.522;1.348;2023-04-24T13:17:02;5.38;;;0.80;;
80307;SDS011;69616;43.522;1.348;2023-04-24T13:19:28;5.97;;;0.90;;
80307;SDS011;69616;43.522;1.348;2023-04-24T13:21:54;6.73;;;1.00;;
80307;SDS011;69616;43.522;1.348;2023-04-24T13:24:21;5.80;;;0.88;;
80307;SDS011;69616;43.522;1.348;2023-04-24T13:26:49;7.40;;;1.40;;
80307;SDS011;69616;43.522;1.348;2023-04-24T13:29:15;5.32;;;0.90;;
80307;SDS011;69616;43.522;1.348;2023-04-24T13:31:41;5.53;;;0.70;;
80307;SDS011;69616;43.522;1.348;2023-04-24T13:34:06;7.67;;;1.10;;
80307;SDS011;69616;43.522;1.348;2023-04-24T13:36:32;7.28;;;1.00;;
80307;SDS011;69616;43.522;1.348;2023-04-24T13:38:57;6.20;;;1.07;;
80307;SDS011;69616;43.522;1.348;2023-04-24T13:41:23;5.30;;;1.10;;
80307;SDS011;69616;43.522;1.348;2023-04-24T13:43:49;7.28;;;0.85;;
80307;SDS011;69616;43.522;1.348;2023-04-24T13:46:14;6.23;;;1.23;;
80307;SDS011;69616;43.522;1.348;2023-04-24T13:48:39;6.27;;;0.90;;
80307;SDS011;69616;43.522;1.348;2023-04-24T13:51:05;9.40;;;1.10;;
80307;SDS011;69616;43.522;1.348;2023-04-24T13:53:30;5.20;;;0.80;;
80307;SDS011;69616;43.522;1.348;2023-04-24T13:55:57;5.67;;;0.90;;
80307;SDS011;69616;43.522;1.348;2023-04-24T13:58:22;5.30;;;0.98;;
80307;SDS011;69616;43.522;1.348;2023-04-24T14:00:48;6.00;;;1.03;;
80307;SDS011;69616;43.522;1.348;2023-04-24T14:03:13;5.90;;;0.97;;
80307;SDS011;69616;43.522;1.348;2023-04-24T14:05:38;5.43;;;0.73;;
80307;SDS011;69616;43.522;1.348;2023-04-24T14:08:04;4.63;;;0.80;;
80307;SDS011;69616;43.522;1.348;2023-04-24T14:10:30;7.53;;;0.98;;
80307;SDS011;69616;43.522;1.348;2023-04-24T14:12:55;5.60;;;1.10;;
80307;SDS011;69616;43.522;1.348;2023-04-24T14:15:21;7.67;;;1.03;;
80307;SDS011;69616;43.522;1.348;2023-04-24T14:17:47;6.07;;;1.07;;
80307;SDS011;69616;43.522;1.348;2023-04-24T14:20:13;5.40;;;0.98;;
80307;SDS011;69616;43.522;1.348;2023-04-24T14:22:38;6.87;;;1.13;;
80307;SDS011;69616;43.522;1.348;2023-04-24T14:25:04;6.90;;;1.00;;
80307;SDS011;69616;43.522;1.348;2023-04-24T14:27:30;5.55;;;1.02;;
80307;SDS011;69616;43.522;1.348;2023-04-24T14:29:56;7.10;;;0.88;;
80307;SDS011;69616;43.522;1.348;2023-04-24T14:32:22;6.33;;;1.00;;
80307;SDS011;69616;43.522;1.348;2023-04-24T14:34:47;6.03;;;0.80;;
80307;SDS011;69616;43.522;1.348;2023-04-24T14:37:13;9.00;;;0.90;;
80307;SDS011;69616;43.522;1.348;2023-04-24T14:39:38;6.33;;;1.13;;
80307;SDS011;69616;43.522;1.348;2023-04-24T14:42:04;6.93;;;1.00;;
80307;SDS011;69616;43.522;1.348;2023-04-24T14:44:29;7.63;;;0.80;;
80307;SDS011;69616;43.522;1.348;2023-04-24T14:46:54;6.70;;;0.87;;
80307;SDS011;69616;43.522;1.348;2023-04-24T14:49:20;4.53;;;0.73;;
80307;SDS011;69616;43.522;1.348;2023-04-24T14:51:45;6.30;;;1.03;;
80307;SDS011;69616;43.522;1.348;2023-04-24T14:54:11;5.77;;;0.90;;
80307;SDS011;69616;43.522;1.348;2023-04-24T14:56:36;6.07;;;0.90;;
80307;SDS011;69616;43.522;1.348;2023-04-24T14:59:02;7.10;;;0.90;;